sensor_id;sensor_type;location;lat;lon;timestamp;P1;durP1;ratioP1;P2;durP2;ratioP2
57057;SDS011;55017;52.848;6.748;2023-02-28T00:02:15;141.98;;;136.98;;
57057;SDS011;55017;52.848;6.748;2023-02-28T00:04:42;140.40;;;135.13;;
57057;SDS011;55017;52.848;6.748;2023-02-28T00:07:09;139.05;;;133.88;;
57057;SDS011;55017;52.848;6.748;2023-02-28T00:09:35;143.13;;;138.23;;
57057;SDS011;55017;52.848;6.748;2023-02-28T00:12:01;143.18;;;138.00;;
57057;SDS011;55017;52.848;6.748;2023-02-28T00:14:35;143.48;;;138.40;;
57057;SDS011;55017;52.848;6.748;2023-02-28T00:17:01;143.00;;;137.77;;
57057;SDS011;55017;52.848;6.748;2023-02-28T00:19:27;143.68;;;138.45;;
57057;SDS011;55017;52.848;6.748;2023-02-28T00:21:53;143.77;;;138.82;;
57057;SDS011;55017;52.848;6.748;2023-02-28T00:24:19;140.85;;;135.88;;
57057;SDS011;55017;52.848;6.748;2023-02-28T00:26:45;142.13;;;136.73;;
57057;SDS011;55017;52.848;6.748;2023-02-28T00:29:11;140.85;;;135.77;;
57057;SDS011;55017;52.848;6.748;2023-02-28T00:31:37;141.77;;;136.88;;
57057;SDS011;55017;52.848;6.748;2023-02-28T00:34:03;143.23;;;138.05;;
57057;SDS011;55017;52.848;6.748;2023-02-28T00:36:29;149.18;;;143.38;;
57057;SDS011;55017;52.848;6.748;2023-02-28T00:38:55;146.45;;;140.88;;
57057;SDS011;55017;52.848;6.748;2023-02-28T00:41:21;144.70;;;139.48;;
57057;SDS011;55017;52.848;6.748;2023-02-28T00:43:47;143.63;;;138.57;;
57057;SDS011;55017;52.848;6.748;2023-02-28T00:46:13;138.63;;;134.02;;
57057;SDS011;55017;52.848;6.748;2023-02-28T00:48:39;146.13;;;141.02;;
57057;SDS011;55017;52.848;6.748;2023-02-28T00:51:05;143.73;;;138.57;;
57057;SDS011;55017;52.848;6.748;2023-02-28T00:53:31;140.98;;;135.95;;
57057;SDS011;55017;52.848;6.748;2023-02-28T00:55:57;140.93;;;136.00;;
57057;SDS011;55017;52.848;6.748;2023-02-28T00:58:24;143.00;;;137.95;;
57057;SDS011;55017;52.848;6.748;2023-02-28T01:00:50;141.85;;;136.85;;
57057;SDS011;55017;52.848;6.748;2023-02-28T01:03:17;143.43;;;138.52;;
57057;SDS011;55017;52.848;6.748;2023-02-28T01:05:43;141.65;;;136.88;;
57057;SDS011;55017;52.848;6.748;2023-02-28T01:08:09;142.27;;;137.02;;
57057;SDS011;55017;52.848;6.748;2023-02-28T01:10:35;144.52;;;139.50;;
57057;SDS011;55017;52.848;6.748;2023-02-28T01:13:02;141.50;;;136.50;;
57057;SDS011;55017;52.848;6.748;2023-02-28T01:15:28;146.18;;;141.05;;
57057;SDS011;55017;52.848;6.748;2023-02-28T01:17:54;144.52;;;139.65;;
57057;SDS011;55017;52.848;6.748;2023-02-28T01:20:20;139.35;;;134.55;;
57057;SDS011;55017;52.848;6.748;2023-02-28T01:22:46;141.52;;;136.68;;
57057;SDS011;55017;52.848;6.748;2023-02-28T01:25:12;143.70;;;138.80;;
57057;SDS011;55017;52.848;6.748;2023-02-28T01:27:38;141.00;;;135.77;;
57057;SDS011;55017;52.848;6.748;2023-02-28T01:30:05;144.82;;;139.73;;
57057;SDS011;55017;52.848;6.748;2023-02-28T01:32:31;144.25;;;139.20;;
57057;SDS011;55017;52.848;6.748;2023-02-28T01:34:57;142.20;;;137.50;;
57057;SDS011;55017;52.848;6.748;2023-02-28T01:37:23;145.15;;;140.05;;
57057;SDS011;55017;52.848;6.748;2023-02-28T01:39:49;145.73;;;140.70;;
57057;SDS011;55017;52.848;6.748;2023-02-28T01:42:15;143.63;;;138.40;;
57057;SDS011;55017;52.848;6.748;2023-02-28T01:47:19;144.77;;;139.80;;
57057;SDS011;55017;52.848;6.748;2023-02-28T01:49:46;146.80;;;141.65;;
57057;SDS011;55017;52.848;6.748;2023-02-28T01:52:13;141.45;;;136.32;;
57057;SDS011;55017;52.848;6.748;2023-02-28T01:54:43;146.95;;;141.93;;
57057;SDS011;55017;52.848;6.748;2023-02-28T01:57:11;144.07;;;138.37;;
57057;SDS011;55017;52.848;6.748;2023-02-28T02:02:10;144.77;;;139.73;;
57057;SDS011;55017;52.848;6.748;2023-02-28T02:04:37;143.45;;;138.55;;
57057;SDS011;55017;52.848;6.748;2023-02-28T02:07:04;144.13;;;138.98;;
57057;SDS011;55017;52.848;6.748;2023-02-28T02:09:30;141.57;;;136.77;;
57057;SDS011;55017;52.848;6.748;2023-02-28T02:11:57;140.13;;;135.43;;
57057;SDS011;55017;52.848;6.748;2023-02-28T02:14:48;141.88;;;137.02;;
57057;SDS011;55017;52.848;6.748;2023-02-28T02:17:24;146.52;;;140.98;;
57057;SDS011;55017;52.848;6.748;2023-02-28T02:20:02;145.07;;;140.02;;
57057;SDS011;55017;52.848;6.748;2023-02-28T02:22:48;144.20;;;139.15;;
57057;SDS011;55017;52.848;6.748;2023-02-28T02:25:28;139.05;;;134.30;;
57057;SDS011;55017;52.848;6.748;2023-02-28T02:30:59;143.45;;;138.38;;
57057;SDS011;55017;52.848;6.748;2023-02-28T02:33:40;141.95;;;136.70;;
57057;SDS011;55017;52.848;6.748;2023-02-28T02:39:05;143.88;;;138.73;;
57057;SDS011;55017;52.848;6.748;2023-02-28T02:41:40;141.68;;;136.60;;
57057;SDS011;55017;52.848;6.748;2023-02-28T02:44:22;144.85;;;139.70;;
57057;SDS011;55017;52.848;6.748;2023-02-28T02:46:48;139.95;;;134.77;;
57057;SDS011;55017;52.848;6.748;2023-02-28T02:49:18;145.40;;;140.30;;
57057;SDS011;55017;52.848;6.748;2023-02-28T02:51:46;141.38;;;136.45;;
57057;SDS011;55017;52.848;6.748;2023-02-28T02:54:15;146.73;;;141.55;;
57057;SDS011;55017;52.848;6.748;2023-02-28T02:56:43;144.85;;;139.27;;
57057;SDS011;55017;52.848;6.748;2023-02-28T02:59:11;143.55;;;138.52;;
57057;SDS011;55017;52.848;6.748;2023-02-28T03:01:38;144.63;;;139.53;;
57057;SDS011;55017;52.848;6.748;2023-02-28T03:04:07;143.15;;;138.25;;
57057;SDS011;55017;52.848;6.748;2023-02-28T03:09:00;140.65;;;135.70;;
57057;SDS011;55017;52.848;6.748;2023-02-28T03:11:26;143.07;;;138.00;;
57057;SDS011;55017;52.848;6.748;2023-02-28T03:29:45;145.35;;;140.35;;
57057;SDS011;55017;52.848;6.748;2023-02-28T03:32:16;143.55;;;138.55;;
57057;SDS011;55017;52.848;6.748;2023-02-28T03:34:48;146.00;;;140.68;;
57057;SDS011;55017;52.848;6.748;2023-02-28T03:37:17;141.57;;;136.50;;
57057;SDS011;55017;52.848;6.748;2023-02-28T03:39:53;147.15;;;142.02;;
57057;SDS011;55017;52.848;6.748;2023-02-28T03:42:23;143.48;;;138.23;;
57057;SDS011;55017;52.848;6.748;2023-02-28T03:44:52;144.82;;;139.52;;
57057;SDS011;55017;52.848;6.748;2023-02-28T03:47:27;145.32;;;140.18;;
57057;SDS011;55017;52.848;6.748;2023-02-28T03:49:59;145.27;;;140.18;;
57057;SDS011;55017;52.848;6.748;2023-02-28T03:52:27;144.60;;;139.50;;
57057;SDS011;55017;52.848;6.748;2023-02-28T03:54:56;141.00;;;136.00;;
57057;SDS011;55017;52.848;6.748;2023-02-28T03:57:33;146.32;;;141.27;;
57057;SDS011;55017;52.848;6.748;2023-02-28T04:02:33;148.00;;;142.73;;
57057;SDS011;55017;52.848;6.748;2023-02-28T04:04:59;147.18;;;142.10;;
57057;SDS011;55017;52.848;6.748;2023-02-28T04:07:28;149.77;;;144.25;;
57057;SDS011;55017;52.848;6.748;2023-02-28T04:09:55;144.63;;;139.50;;
57057;SDS011;55017;52.848;6.748;2023-02-28T04:12:21;145.25;;;140.00;;
57057;SDS011;55017;52.848;6.748;2023-02-28T04:14:48;147.00;;;141.85;;
57057;SDS011;55017;52.848;6.748;2023-02-28T04:17:14;143.50;;;138.27;;
57057;SDS011;55017;52.848;6.748;2023-02-28T04:19:40;146.20;;;141.10;;
57057;SDS011;55017;52.848;6.748;2023-02-28T04:22:07;144.65;;;139.52;;
57057;SDS011;55017;52.848;6.748;2023-02-28T04:24:34;142.02;;;137.13;;
57057;SDS011;55017;52.848;6.748;2023-02-28T04:27:00;141.48;;;136.40;;
57057;SDS011;55017;52.848;6.748;2023-02-28T04:29:32;142.80;;;137.77;;
57057;SDS011;55017;52.848;6.748;2023-02-28T04:31:58;144.27;;;139.38;;
57057;SDS011;55017;52.848;6.748;2023-02-28T04:34:25;145.32;;;139.80;;
57057;SDS011;55017;52.848;6.748;2023-02-28T04:36:51;143.45;;;138.07;;
57057;SDS011;55017;52.848;6.748;2023-02-28T04:39:19;144.63;;;139.30;;
57057;SDS011;55017;52.848;6.748;2023-02-28T04:41:45;146.32;;;141.18;;
57057;SDS011;55017;52.848;6.748;2023-02-28T04:44:12;144.88;;;139.75;;
57057;SDS011;55017;52.848;6.748;2023-02-28T04:46:38;146.05;;;140.68;;
57057;SDS011;55017;52.848;6.748;2023-02-28T04:49:05;147.30;;;141.55;;
57057;SDS011;55017;52.848;6.748;2023-02-28T04:51:31;147.93;;;142.45;;
57057;SDS011;55017;52.848;6.748;2023-02-28T04:53:57;146.68;;;141.07;;
57057;SDS011;55017;52.848;6.748;2023-02-28T04:56:23;147.07;;;141.77;;
57057;SDS011;55017;52.848;6.748;2023-02-28T04:58:49;147.80;;;142.13;;
57057;SDS011;55017;52.848;6.748;2023-02-28T05:03:47;147.35;;;141.85;;
57057;SDS011;55017;52.848;6.748;2023-02-28T05:06:13;148.43;;;143.02;;
57057;SDS011;55017;52.848;6.748;2023-02-28T05:08:40;150.00;;;144.52;;
57057;SDS011;55017;52.848;6.748;2023-02-28T05:11:07;148.20;;;142.55;;
57057;SDS011;55017;52.848;6.748;2023-02-28T05:13:33;148.23;;;142.85;;
57057;SDS011;55017;52.848;6.748;2023-02-28T05:16:00;145.13;;;139.80;;
57057;SDS011;55017;52.848;6.748;2023-02-28T05:18:26;151.23;;;145.25;;
57057;SDS011;55017;52.848;6.748;2023-02-28T05:20:52;148.55;;;142.80;;
57057;SDS011;55017;52.848;6.748;2023-02-28T05:23:18;151.30;;;145.35;;
57057;SDS011;55017;52.848;6.748;2023-02-28T05:25:45;147.60;;;142.05;;
57057;SDS011;55017;52.848;6.748;2023-02-28T05:28:11;148.77;;;143.18;;
57057;SDS011;55017;52.848;6.748;2023-02-28T05:30:37;150.35;;;144.50;;
57057;SDS011;55017;52.848;6.748;2023-02-28T05:33:03;150.07;;;144.43;;
57057;SDS011;55017;52.848;6.748;2023-02-28T05:35:29;147.25;;;141.52;;
57057;SDS011;55017;52.848;6.748;2023-02-28T05:37:55;150.25;;;144.30;;
57057;SDS011;55017;52.848;6.748;2023-02-28T05:40:21;146.13;;;140.63;;
57057;SDS011;55017;52.848;6.748;2023-02-28T05:42:48;148.75;;;143.13;;
57057;SDS011;55017;52.848;6.748;2023-02-28T05:45:15;149.53;;;143.87;;
57057;SDS011;55017;52.848;6.748;2023-02-28T05:47:42;151.93;;;146.02;;
57057;SDS011;55017;52.848;6.748;2023-02-28T05:50:08;148.75;;;143.25;;
57057;SDS011;55017;52.848;6.748;2023-02-28T05:52:35;150.27;;;144.00;;
57057;SDS011;55017;52.848;6.748;2023-02-28T05:55:01;149.57;;;143.95;;
57057;SDS011;55017;52.848;6.748;2023-02-28T05:57:27;150.88;;;145.20;;
57057;SDS011;55017;52.848;6.748;2023-02-28T05:59:53;152.15;;;146.45;;
57057;SDS011;55017;52.848;6.748;2023-02-28T06:02:19;151.48;;;145.85;;
57057;SDS011;55017;52.848;6.748;2023-02-28T06:04:45;146.30;;;140.70;;
57057;SDS011;55017;52.848;6.748;2023-02-28T06:07:11;150.52;;;144.63;;
57057;SDS011;55017;52.848;6.748;2023-02-28T06:09:38;150.80;;;145.05;;
57057;SDS011;55017;52.848;6.748;2023-02-28T06:12:04;144.52;;;139.00;;
57057;SDS011;55017;52.848;6.748;2023-02-28T06:14:32;148.48;;;142.88;;
57057;SDS011;55017;52.848;6.748;2023-02-28T06:16:59;150.23;;;144.68;;
57057;SDS011;55017;52.848;6.748;2023-02-28T06:19:25;151.65;;;146.05;;
57057;SDS011;55017;52.848;6.748;2023-02-28T06:21:52;149.65;;;143.93;;
57057;SDS011;55017;52.848;6.748;2023-02-28T06:24:19;149.95;;;144.35;;
57057;SDS011;55017;52.848;6.748;2023-02-28T06:26:45;149.65;;;144.05;;
57057;SDS011;55017;52.848;6.748;2023-02-28T06:29:11;150.75;;;144.82;;
57057;SDS011;55017;52.848;6.748;2023-02-28T06:31:37;151.90;;;146.18;;
57057;SDS011;55017;52.848;6.748;2023-02-28T06:34:04;152.02;;;146.07;;
57057;SDS011;55017;52.848;6.748;2023-02-28T06:36:30;149.90;;;144.20;;
57057;SDS011;55017;52.848;6.748;2023-02-28T06:38:56;152.63;;;146.13;;
57057;SDS011;55017;52.848;6.748;2023-02-28T06:41:25;148.35;;;142.68;;
57057;SDS011;55017;52.848;6.748;2023-02-28T06:43:52;149.90;;;144.40;;
57057;SDS011;55017;52.848;6.748;2023-02-28T06:46:18;148.52;;;142.75;;
57057;SDS011;55017;52.848;6.748;2023-02-28T06:48:44;149.05;;;143.35;;
57057;SDS011;55017;52.848;6.748;2023-02-28T06:51:13;152.50;;;146.65;;
57057;SDS011;55017;52.848;6.748;2023-02-28T06:53:39;151.52;;;145.57;;
57057;SDS011;55017;52.848;6.748;2023-02-28T06:56:15;152.90;;;146.88;;
57057;SDS011;55017;52.848;6.748;2023-02-28T06:58:41;150.52;;;144.73;;
57057;SDS011;55017;52.848;6.748;2023-02-28T07:01:08;153.65;;;147.40;;
57057;SDS011;55017;52.848;6.748;2023-02-28T07:03:34;150.32;;;144.27;;
57057;SDS011;55017;52.848;6.748;2023-02-28T07:06:00;149.18;;;143.32;;
57057;SDS011;55017;52.848;6.748;2023-02-28T07:08:27;148.23;;;142.45;;
57057;SDS011;55017;52.848;6.748;2023-02-28T07:10:54;150.90;;;145.00;;
57057;SDS011;55017;52.848;6.748;2023-02-28T07:13:20;152.00;;;146.10;;
57057;SDS011;55017;52.848;6.748;2023-02-28T07:15:56;150.60;;;144.70;;
57057;SDS011;55017;52.848;6.748;2023-02-28T07:18:22;154.98;;;148.63;;
57057;SDS011;55017;52.848;6.748;2023-02-28T07:20:48;152.90;;;147.05;;
57057;SDS011;55017;52.848;6.748;2023-02-28T07:23:14;151.57;;;145.80;;
57057;SDS011;55017;52.848;6.748;2023-02-28T07:25:40;151.35;;;145.65;;
57057;SDS011;55017;52.848;6.748;2023-02-28T07:28:06;152.88;;;146.82;;
57057;SDS011;55017;52.848;6.748;2023-02-28T07:30:32;150.27;;;144.68;;
57057;SDS011;55017;52.848;6.748;2023-02-28T07:32:58;147.95;;;142.20;;
57057;SDS011;55017;52.848;6.748;2023-02-28T07:35:24;150.73;;;144.88;;
57057;SDS011;55017;52.848;6.748;2023-02-28T07:37:50;150.25;;;144.40;;
57057;SDS011;55017;52.848;6.748;2023-02-28T07:40:16;147.20;;;141.73;;
57057;SDS011;55017;52.848;6.748;2023-02-28T07:42:43;148.15;;;142.60;;
57057;SDS011;55017;52.848;6.748;2023-02-28T07:45:09;146.63;;;141.18;;
57057;SDS011;55017;52.848;6.748;2023-02-28T07:47:39;148.57;;;142.80;;
57057;SDS011;55017;52.848;6.748;2023-02-28T07:50:07;148.98;;;143.18;;
57057;SDS011;55017;52.848;6.748;2023-02-28T07:52:37;147.85;;;142.35;;
57057;SDS011;55017;52.848;6.748;2023-02-28T07:55:04;148.75;;;143.05;;
57057;SDS011;55017;52.848;6.748;2023-02-28T07:57:30;148.95;;;143.35;;
57057;SDS011;55017;52.848;6.748;2023-02-28T07:59:56;146.00;;;140.13;;
57057;SDS011;55017;52.848;6.748;2023-02-28T08:02:22;150.10;;;144.48;;
57057;SDS011;55017;52.848;6.748;2023-02-28T08:04:48;145.15;;;139.60;;
57057;SDS011;55017;52.848;6.748;2023-02-28T08:07:15;147.02;;;141.60;;
57057;SDS011;55017;52.848;6.748;2023-02-28T08:09:41;144.35;;;139.15;;
57057;SDS011;55017;52.848;6.748;2023-02-28T08:12:08;141.30;;;136.20;;
57057;SDS011;55017;52.848;6.748;2023-02-28T08:14:34;138.18;;;133.18;;
57057;SDS011;55017;52.848;6.748;2023-02-28T08:17:00;133.60;;;128.98;;
57057;SDS011;55017;52.848;6.748;2023-02-28T08:19:27;137.25;;;132.25;;
57057;SDS011;55017;52.848;6.748;2023-02-28T08:21:53;139.70;;;134.80;;
57057;SDS011;55017;52.848;6.748;2023-02-28T08:24:19;137.50;;;132.60;;
57057;SDS011;55017;52.848;6.748;2023-02-28T08:26:45;135.88;;;130.80;;
57057;SDS011;55017;52.848;6.748;2023-02-28T08:29:11;137.18;;;132.38;;
57057;SDS011;55017;52.848;6.748;2023-02-28T08:31:37;138.23;;;133.27;;
57057;SDS011;55017;52.848;6.748;2023-02-28T08:34:07;136.43;;;131.27;;
57057;SDS011;55017;52.848;6.748;2023-02-28T08:36:33;137.70;;;132.77;;
57057;SDS011;55017;52.848;6.748;2023-02-28T08:38:59;136.45;;;131.48;;
57057;SDS011;55017;52.848;6.748;2023-02-28T08:41:25;137.75;;;132.95;;
57057;SDS011;55017;52.848;6.748;2023-02-28T08:43:51;143.93;;;138.65;;
57057;SDS011;55017;52.848;6.748;2023-02-28T08:46:18;140.18;;;135.07;;
57057;SDS011;55017;52.848;6.748;2023-02-28T08:48:45;137.32;;;132.30;;
57057;SDS011;55017;52.848;6.748;2023-02-28T08:51:12;140.63;;;135.45;;
57057;SDS011;55017;52.848;6.748;2023-02-28T08:53:39;142.10;;;136.87;;
57057;SDS011;55017;52.848;6.748;2023-02-28T08:56:06;149.63;;;141.45;;
57057;SDS011;55017;52.848;6.748;2023-02-28T08:58:33;144.82;;;139.63;;
57057;SDS011;55017;52.848;6.748;2023-02-28T09:00:59;141.68;;;136.55;;
57057;SDS011;55017;52.848;6.748;2023-02-28T09:03:25;142.20;;;137.10;;
57057;SDS011;55017;52.848;6.748;2023-02-28T09:08:20;138.80;;;133.75;;
57057;SDS011;55017;52.848;6.748;2023-02-28T09:10:46;139.40;;;134.23;;
57057;SDS011;55017;52.848;6.748;2023-02-28T09:13:12;139.98;;;134.85;;
57057;SDS011;55017;52.848;6.748;2023-02-28T09:15:38;142.98;;;137.98;;
57057;SDS011;55017;52.848;6.748;2023-02-28T09:18:05;139.57;;;134.60;;
57057;SDS011;55017;52.848;6.748;2023-02-28T09:20:31;143.30;;;138.30;;
57057;SDS011;55017;52.848;6.748;2023-02-28T09:22:57;138.50;;;133.60;;
57057;SDS011;55017;52.848;6.748;2023-02-28T09:25:23;139.60;;;134.55;;
57057;SDS011;55017;52.848;6.748;2023-02-28T09:27:49;141.73;;;136.80;;
57057;SDS011;55017;52.848;6.748;2023-02-28T09:30:15;142.68;;;137.73;;
57057;SDS011;55017;52.848;6.748;2023-02-28T09:32:41;138.52;;;133.70;;
57057;SDS011;55017;52.848;6.748;2023-02-28T09:35:07;135.55;;;130.80;;
57057;SDS011;55017;52.848;6.748;2023-02-28T09:37:38;142.25;;;137.20;;
57057;SDS011;55017;52.848;6.748;2023-02-28T09:40:04;142.07;;;137.18;;
57057;SDS011;55017;52.848;6.748;2023-02-28T09:42:31;138.70;;;133.90;;
57057;SDS011;55017;52.848;6.748;2023-02-28T09:45:00;139.30;;;134.50;;
57057;SDS011;55017;52.848;6.748;2023-02-28T09:47:34;136.52;;;131.98;;
57057;SDS011;55017;52.848;6.748;2023-02-28T09:50:45;139.65;;;134.80;;
57057;SDS011;55017;52.848;6.748;2023-02-28T09:52:51;135.35;;;130.75;;
57057;SDS011;55017;52.848;6.748;2023-02-28T09:55:19;138.23;;;133.63;;
57057;SDS011;55017;52.848;6.748;2023-02-28T09:57:47;137.40;;;132.80;;
57057;SDS011;55017;52.848;6.748;2023-02-28T10:00:21;140.65;;;135.85;;
57057;SDS011;55017;52.848;6.748;2023-02-28T10:05:15;137.27;;;132.55;;
57057;SDS011;55017;52.848;6.748;2023-02-28T10:10:21;138.60;;;134.00;;
57057;SDS011;55017;52.848;6.748;2023-02-28T10:12:48;139.02;;;134.43;;
57057;SDS011;55017;52.848;6.748;2023-02-28T10:15:16;137.65;;;133.13;;
57057;SDS011;55017;52.848;6.748;2023-02-28T10:17:44;137.27;;;132.38;;
57057;SDS011;55017;52.848;6.748;2023-02-28T10:20:11;137.82;;;133.23;;
57057;SDS011;55017;52.848;6.748;2023-02-28T10:23:21;137.32;;;132.50;;
57057;SDS011;55017;52.848;6.748;2023-02-28T10:25:32;133.75;;;129.25;;
57057;SDS011;55017;52.848;6.748;2023-02-28T10:28:01;139.30;;;134.45;;
57057;SDS011;55017;52.848;6.748;2023-02-28T10:30:27;140.73;;;136.02;;
57057;SDS011;55017;52.848;6.748;2023-02-28T10:32:53;135.38;;;130.77;;
57057;SDS011;55017;52.848;6.748;2023-02-28T10:37:47;136.98;;;132.35;;
57057;SDS011;55017;52.848;6.748;2023-02-28T10:42:39;134.02;;;129.68;;
57057;SDS011;55017;52.848;6.748;2023-02-28T10:45:15;138.73;;;134.15;;
57057;SDS011;55017;52.848;6.748;2023-02-28T10:47:48;135.25;;;130.70;;
57057;SDS011;55017;52.848;6.748;2023-02-28T10:53:05;137.73;;;133.13;;
57057;SDS011;55017;52.848;6.748;2023-02-28T10:55:33;133.98;;;129.60;;
57057;SDS011;55017;52.848;6.748;2023-02-28T10:57:59;140.73;;;136.13;;
57057;SDS011;55017;52.848;6.748;2023-02-28T11:00:25;136.07;;;131.55;;
57057;SDS011;55017;52.848;6.748;2023-02-28T11:02:56;139.82;;;135.20;;
57057;SDS011;55017;52.848;6.748;2023-02-28T11:05:24;135.00;;;130.60;;
57057;SDS011;55017;52.848;6.748;2023-02-28T11:07:54;130.43;;;126.22;;
57057;SDS011;55017;52.848;6.748;2023-02-28T11:10:21;135.80;;;131.30;;
57057;SDS011;55017;52.848;6.748;2023-02-28T11:12:50;135.40;;;130.85;;
57057;SDS011;55017;52.848;6.748;2023-02-28T11:15:24;134.48;;;130.00;;
57057;SDS011;55017;52.848;6.748;2023-02-28T11:20:23;136.32;;;131.93;;
57057;SDS011;55017;52.848;6.748;2023-02-28T11:22:50;133.13;;;128.75;;
57057;SDS011;55017;52.848;6.748;2023-02-28T11:27:50;133.38;;;128.77;;
57057;SDS011;55017;52.848;6.748;2023-02-28T11:30:23;130.70;;;126.43;;
57057;SDS011;55017;52.848;6.748;2023-02-28T11:32:49;131.75;;;127.25;;
57057;SDS011;55017;52.848;6.748;2023-02-28T11:35:35;133.88;;;129.38;;
57057;SDS011;55017;52.848;6.748;2023-02-28T11:38:02;135.70;;;131.05;;
57057;SDS011;55017;52.848;6.748;2023-02-28T11:40:36;135.25;;;130.95;;
57057;SDS011;55017;52.848;6.748;2023-02-28T11:43:21;134.95;;;130.55;;
57057;SDS011;55017;52.848;6.748;2023-02-28T11:51:27;137.18;;;132.77;;
57057;SDS011;55017;52.848;6.748;2023-02-28T11:56:49;135.27;;;130.77;;
57057;SDS011;55017;52.848;6.748;2023-02-28T12:04:33;137.18;;;132.55;;
57057;SDS011;55017;52.848;6.748;2023-02-28T12:07:03;133.77;;;129.35;;
57057;SDS011;55017;52.848;6.748;2023-02-28T12:09:38;134.93;;;130.48;;
57057;SDS011;55017;52.848;6.748;2023-02-28T12:19:50;121.53;;;117.70;;
57057;SDS011;55017;52.848;6.748;2023-02-28T12:22:36;119.03;;;115.32;;
57057;SDS011;55017;52.848;6.748;2023-02-28T12:27:33;108.70;;;105.20;;
57057;SDS011;55017;52.848;6.748;2023-02-28T12:30:02;111.20;;;107.68;;
57057;SDS011;55017;52.848;6.748;2023-02-28T12:32:32;105.57;;;102.20;;
57057;SDS011;55017;52.848;6.748;2023-02-28T12:37:36;106.30;;;102.82;;
57057;SDS011;55017;52.848;6.748;2023-02-28T12:40:09;104.90;;;101.50;;
57057;SDS011;55017;52.848;6.748;2023-02-28T12:42:38;101.25;;;97.95;;
57057;SDS011;55017;52.848;6.748;2023-02-28T12:45:12;104.15;;;100.80;;
57057;SDS011;55017;52.848;6.748;2023-02-28T12:48:01;102.65;;;99.35;;
57057;SDS011;55017;52.848;6.748;2023-02-28T12:50:31;101.10;;;97.80;;
57057;SDS011;55017;52.848;6.748;2023-02-28T12:55:42;102.43;;;99.10;;
57057;SDS011;55017;52.848;6.748;2023-02-28T12:58:26;103.00;;;99.70;;
57057;SDS011;55017;52.848;6.748;2023-02-28T13:01:00;102.80;;;99.47;;
57057;SDS011;55017;52.848;6.748;2023-02-28T13:08:57;105.72;;;102.15;;
57057;SDS011;55017;52.848;6.748;2023-02-28T13:11:51;105.70;;;102.38;;
57057;SDS011;55017;52.848;6.748;2023-02-28T13:16:56;105.28;;;101.90;;
57057;SDS011;55017;52.848;6.748;2023-02-28T13:19:23;109.47;;;105.88;;
57057;SDS011;55017;52.848;6.748;2023-02-28T13:21:49;108.47;;;104.97;;
57057;SDS011;55017;52.848;6.748;2023-02-28T13:33:22;116.78;;;113.05;;
57057;SDS011;55017;52.848;6.748;2023-02-28T13:35:49;115.60;;;111.80;;
57057;SDS011;55017;52.848;6.748;2023-02-28T13:38:32;117.72;;;114.03;;
57057;SDS011;55017;52.848;6.748;2023-02-28T13:44:00;114.45;;;110.75;;
57057;SDS011;55017;52.848;6.748;2023-02-28T13:46:27;117.45;;;113.75;;
57057;SDS011;55017;52.848;6.748;2023-02-28T13:48:53;117.30;;;113.60;;
57057;SDS011;55017;52.848;6.748;2023-02-28T13:53:57;113.55;;;109.95;;
57057;SDS011;55017;52.848;6.748;2023-02-28T13:56:35;118.07;;;114.32;;
57057;SDS011;55017;52.848;6.748;2023-02-28T13:59:14;116.00;;;112.20;;
57057;SDS011;55017;52.848;6.748;2023-02-28T14:01:48;121.97;;;118.00;;
57057;SDS011;55017;52.848;6.748;2023-02-28T14:06:50;120.80;;;116.90;;
57057;SDS011;55017;52.848;6.748;2023-02-28T14:09:34;122.30;;;118.38;;
57057;SDS011;55017;52.848;6.748;2023-02-28T14:17:15;124.47;;;120.47;;
57057;SDS011;55017;52.848;6.748;2023-02-28T14:19:44;123.45;;;119.53;;
57057;SDS011;55017;52.848;6.748;2023-02-28T14:25:04;125.65;;;121.57;;
57057;SDS011;55017;52.848;6.748;2023-02-28T14:35:39;123.60;;;119.50;;
57057;SDS011;55017;52.848;6.748;2023-02-28T14:38:19;123.18;;;119.13;;
57057;SDS011;55017;52.848;6.748;2023-02-28T14:40:46;126.85;;;122.65;;
57057;SDS011;55017;52.848;6.748;2023-02-28T14:43:19;125.70;;;121.70;;
57057;SDS011;55017;52.848;6.748;2023-02-28T14:45:48;128.57;;;124.40;;
57057;SDS011;55017;52.848;6.748;2023-02-28T14:48:15;128.25;;;124.05;;
57057;SDS011;55017;52.848;6.748;2023-02-28T14:50:41;128.32;;;124.20;;
57057;SDS011;55017;52.848;6.748;2023-02-28T14:53:15;129.82;;;125.63;;
57057;SDS011;55017;52.848;6.748;2023-02-28T14:55:44;127.10;;;122.90;;
57057;SDS011;55017;52.848;6.748;2023-02-28T14:58:24;129.23;;;124.97;;
57057;SDS011;55017;52.848;6.748;2023-02-28T15:00:51;124.53;;;120.53;;
57057;SDS011;55017;52.848;6.748;2023-02-28T15:03:20;126.00;;;121.82;;
57057;SDS011;55017;52.848;6.748;2023-02-28T15:05:54;128.88;;;124.63;;
57057;SDS011;55017;52.848;6.748;2023-02-28T15:08:20;125.97;;;121.80;;
57057;SDS011;55017;52.848;6.748;2023-02-28T15:10:50;125.72;;;121.43;;
57057;SDS011;55017;52.848;6.748;2023-02-28T15:13:18;127.78;;;123.47;;
57057;SDS011;55017;52.848;6.748;2023-02-28T15:18:14;127.78;;;123.68;;
57057;SDS011;55017;52.848;6.748;2023-02-28T15:20:42;126.40;;;122.30;;
57057;SDS011;55017;52.848;6.748;2023-02-28T15:23:08;124.93;;;120.90;;
57057;SDS011;55017;52.848;6.748;2023-02-28T15:25:34;127.63;;;123.43;;
57057;SDS011;55017;52.848;6.748;2023-02-28T15:28:00;124.57;;;120.53;;
57057;SDS011;55017;52.848;6.748;2023-02-28T15:30:27;125.85;;;121.70;;
57057;SDS011;55017;52.848;6.748;2023-02-28T15:35:29;128.38;;;124.18;;
57057;SDS011;55017;52.848;6.748;2023-02-28T15:37:58;124.13;;;120.03;;
57057;SDS011;55017;52.848;6.748;2023-02-28T15:40:27;127.15;;;123.05;;
57057;SDS011;55017;52.848;6.748;2023-02-28T15:45:32;129.13;;;124.70;;
57057;SDS011;55017;52.848;6.748;2023-02-28T15:48:02;125.13;;;121.03;;
57057;SDS011;55017;52.848;6.748;2023-02-28T15:50:28;128.63;;;124.22;;
57057;SDS011;55017;52.848;6.748;2023-02-28T15:52:54;129.15;;;124.65;;
57057;SDS011;55017;52.848;6.748;2023-02-28T15:55:21;126.25;;;121.95;;
57057;SDS011;55017;52.848;6.748;2023-02-28T15:57:50;130.75;;;126.32;;
57057;SDS011;55017;52.848;6.748;2023-02-28T16:00:19;130.98;;;126.53;;
57057;SDS011;55017;52.848;6.748;2023-02-28T16:02:46;131.77;;;127.38;;
57057;SDS011;55017;52.848;6.748;2023-02-28T16:07:38;128.27;;;123.95;;
57057;SDS011;55017;52.848;6.748;2023-02-28T16:10:05;129.75;;;125.32;;
57057;SDS011;55017;52.848;6.748;2023-02-28T16:12:32;130.45;;;125.97;;
57057;SDS011;55017;52.848;6.748;2023-02-28T16:14:59;127.13;;;123.03;;
57057;SDS011;55017;52.848;6.748;2023-02-28T16:17:28;130.07;;;125.68;;
57057;SDS011;55017;52.848;6.748;2023-02-28T16:19:55;126.00;;;121.90;;